sensor_id;sensor_type;location;lat;lon;timestamp;pressure;altitude;pressure_sealevel;temperature;humidity
36664;BME280;53333;51.976;20.144;2023-05-01T00:00:08;100773.59;;;7.38;51.55
36664;BME280;53333;51.976;20.144;2023-05-01T00:02:45;100786.94;;;7.37;51.36
36664;BME280;53333;51.976;20.144;2023-05-01T00:05:18;100780.75;;;7.36;51.52
36664;BME280;53333;51.976;20.144;2023-05-01T00:07:52;100783.41;;;7.36;51.57
36664;BME280;53333;51.976;20.144;2023-05-01T00:10:25;100781.66;;;7.35;51.65
36664;BME280;53333;51.976;20.144;2023-05-01T00:12:58;100788.00;;;7.30;51.66
36664;BME280;53333;51.976;20.144;2023-05-01T00:15:32;100791.69;;;7.24;51.78
36664;BME280;53333;51.976;20.144;2023-05-01T00:18:05;100791.81;;;7.18;51.81
36664;BME280;53333;51.976;20.144;2023-05-01T00:20:38;100784.91;;;7.12;52.21
36664;BME280;53333;51.976;20.144;2023-05-01T00:23:15;100786.81;;;7.07;52.38
36664;BME280;53333;51.976;20.144;2023-05-01T00:25:47;100786.91;;;7.02;52.37
36664;BME280;53333;51.976;20.144;2023-05-01T00:28:22;100794.94;;;6.99;52.45
36664;BME280;53333;51.976;20.144;2023-05-01T00:30:57;100795.88;;;6.97;52.56
36664;BME280;53333;51.976;20.144;2023-05-01T00:33:33;100788.94;;;6.91;52.65
36664;BME280;53333;51.976;20.144;2023-05-01T00:36:06;100794.38;;;6.86;52.69
36664;BME280;53333;51.976;20.144;2023-05-01T00:38:41;100793.50;;;6.84;52.92
36664;BME280;53333;51.976;20.144;2023-05-01T00:41:14;100784.78;;;6.79;53.01
36664;BME280;53333;51.976;20.144;2023-05-01T00:43:47;100785.78;;;6.75;53.04
36664;BME280;53333;51.976;20.144;2023-05-01T00:46:20;100792.91;;;6.71;53.28
36664;BME280;53333;51.976;20.144;2023-05-01T00:48:53;100791.22;;;6.69;53.33
36664;BME280;53333;51.976;20.144;2023-05-01T00:51:28;100791.31;;;6.64;53.39
36664;BME280;53333;51.976;20.144;2023-05-01T00:54:02;100794.03;;;6.61;53.56
36664;BME280;53333;51.976;20.144;2023-05-01T00:56:35;100791.53;;;6.55;53.47
36664;BME280;53333;51.976;20.144;2023-05-01T00:59:09;100791.59;;;6.52;53.63
36664;BME280;53333;51.976;20.144;2023-05-01T01:01:42;100789.03;;;6.47;53.68
36664;BME280;53333;51.976;20.144;2023-05-01T01:04:15;100788.16;;;6.47;53.62
36664;BME280;53333;51.976;20.144;2023-05-01T01:06:52;100786.44;;;6.44;53.82
36664;BME280;53333;51.976;20.144;2023-05-01T01:09:37;100789.06;;;6.46;53.95
36664;BME280;53333;51.976;20.144;2023-05-01T01:12:14;100795.06;;;6.54;52.96
36664;BME280;53333;51.976;20.144;2023-05-01T01:14:56;100791.84;;;6.40;53.43
36664;BME280;53333;51.976;20.144;2023-05-01T01:17:34;100790.19;;;6.35;53.82
36664;BME280;53333;51.976;20.144;2023-05-01T01:20:18;100793.75;;;6.33;53.92
36664;BME280;53333;51.976;20.144;2023-05-01T01:23:00;100797.38;;;6.30;53.94
36664;BME280;53333;51.976;20.144;2023-05-01T01:26:02;100796.41;;;6.33;54.06
36664;BME280;53333;51.976;20.144;2023-05-01T01:31:51;100793.06;;;6.25;54.38
36664;BME280;53333;51.976;20.144;2023-05-01T01:34:32;100796.63;;;6.22;54.40
36664;BME280;53333;51.976;20.144;2023-05-01T01:37:10;100799.31;;;6.21;54.36
36664;BME280;53333;51.976;20.144;2023-05-01T01:40:02;100793.19;;;6.18;54.66
36664;BME280;53333;51.976;20.144;2023-05-01T01:42:40;100791.47;;;6.17;54.88
36664;BME280;53333;51.976;20.144;2023-05-01T01:45:18;100798.56;;;6.14;54.93
36664;BME280;53333;51.976;20.144;2023-05-01T01:47:55;100800.41;;;6.12;54.86
36664;BME280;53333;51.976;20.144;2023-05-01T01:50:32;100790.69;;;6.11;55.13
36664;BME280;53333;51.976;20.144;2023-05-01T01:53:10;100803.94;;;6.11;55.13
36664;BME280;53333;51.976;20.144;2023-05-01T01:55:46;100804.84;;;6.11;55.12
36664;BME280;53333;51.976;20.144;2023-05-01T01:58:20;100802.19;;;6.11;55.20
36664;BME280;53333;51.976;20.144;2023-05-01T02:00:57;100799.56;;;6.10;55.10
36664;BME280;53333;51.976;20.144;2023-05-01T02:03:32;100798.66;;;6.09;55.31
36664;BME280;53333;51.976;20.144;2023-05-01T02:06:07;100799.63;;;6.07;55.33
36664;BME280;53333;51.976;20.144;2023-05-01T02:08:43;100793.53;;;6.02;55.38
36664;BME280;53333;51.976;20.144;2023-05-01T02:11:22;100796.25;;;5.98;55.56
36664;BME280;53333;51.976;20.144;2023-05-01T02:13:58;100794.53;;;5.94;55.49
36664;BME280;53333;51.976;20.144;2023-05-01T02:19:08;100797.31;;;5.87;55.67
36664;BME280;53333;51.976;20.144;2023-05-01T02:21:44;100789.41;;;5.83;55.66
36664;BME280;53333;51.976;20.144;2023-05-01T02:24:18;100795.66;;;5.82;55.53
36664;BME280;53333;51.976;20.144;2023-05-01T02:26:55;100796.50;;;5.83;55.68
36664;BME280;53333;51.976;20.144;2023-05-01T02:29:31;100803.63;;;5.81;55.81
36664;BME280;53333;51.976;20.144;2023-05-01T02:32:04;100802.72;;;5.80;55.71
36664;BME280;53333;51.976;20.144;2023-05-01T02:34:37;100800.09;;;5.79;55.72
36664;BME280;53333;51.976;20.144;2023-05-01T02:37:12;100807.19;;;5.78;55.72
36664;BME280;53333;51.976;20.144;2023-05-01T02:39:46;100797.50;;;5.76;55.83
36664;BME280;53333;51.976;20.144;2023-05-01T02:42:21;100800.19;;;5.74;55.70
36664;BME280;53333;51.976;20.144;2023-05-01T02:44:58;100787.00;;;5.73;55.72
36664;BME280;53333;51.976;20.144;2023-05-01T02:47:36;100793.22;;;5.70;55.90
36664;BME280;53333;51.976;20.144;2023-05-01T02:50:09;100790.63;;;5.67;55.95
36664;BME280;53333;51.976;20.144;2023-05-01T02:52:44;100791.50;;;5.66;56.22
36664;BME280;53333;51.976;20.144;2023-05-01T02:55:32;100789.78;;;5.65;55.90
36664;BME280;53333;51.976;20.144;2023-05-01T02:58:05;100790.69;;;5.62;55.74
36664;BME280;53333;51.976;20.144;2023-05-01T03:00:38;100791.59;;;5.61;56.08
36664;BME280;53333;51.976;20.144;2023-05-01T03:03:11;100791.63;;;5.60;56.13
36664;BME280;53333;51.976;20.144;2023-05-01T03:05:44;100788.13;;;5.58;56.23
36664;BME280;53333;51.976;20.144;2023-05-01T03:08:19;100785.47;;;5.58;56.35
36664;BME280;53333;51.976;20.144;2023-05-01T03:10:53;100787.25;;;5.57;56.27
36664;BME280;53333;51.976;20.144;2023-05-01T03:13:26;100786.31;;;5.60;56.35
36664;BME280;53333;51.976;20.144;2023-05-01T03:15:59;100787.22;;;5.60;56.37
36664;BME280;53333;51.976;20.144;2023-05-01T03:18:32;100782.84;;;5.56;56.44
36664;BME280;53333;51.976;20.144;2023-05-01T03:21:05;100784.63;;;5.56;56.47
36664;BME280;53333;51.976;20.144;2023-05-01T03:23:39;100782.88;;;5.55;56.67
36664;BME280;53333;51.976;20.144;2023-05-01T03:26:12;100777.59;;;5.53;56.59
36664;BME280;53333;51.976;20.144;2023-05-01T03:28:45;100789.94;;;5.56;56.71
36664;BME280;53333;51.976;20.144;2023-05-01T03:31:18;100785.47;;;5.58;56.59
36664;BME280;53333;51.976;20.144;2023-05-01T03:33:52;100788.16;;;5.56;56.48
36664;BME280;53333;51.976;20.144;2023-05-01T03:36:25;100773.16;;;5.57;56.68
36664;BME280;53333;51.976;20.144;2023-05-01T03:39:00;100787.25;;;5.59;56.59
36664;BME280;53333;51.976;20.144;2023-05-01T03:41:58;100788.91;;;5.63;56.42
36664;BME280;53333;51.976;20.144;2023-05-01T03:44:34;100787.13;;;5.65;56.50
36664;BME280;53333;51.976;20.144;2023-05-01T03:47:07;100785.28;;;5.69;56.33
36664;BME280;53333;51.976;20.144;2023-05-01T03:49:44;100779.09;;;5.70;56.41
36664;BME280;53333;51.976;20.144;2023-05-01T03:52:18;100779.97;;;5.70;56.40
36664;BME280;53333;51.976;20.144;2023-05-01T03:57:37;100779.94;;;5.72;56.15
36664;BME280;53333;51.976;20.144;2023-05-01T04:00:12;100782.53;;;5.75;56.51
36664;BME280;53333;51.976;20.144;2023-05-01T04:02:50;100777.97;;;5.81;56.38
36664;BME280;53333;51.976;20.144;2023-05-01T04:05:27;100782.31;;;5.87;56.23
36664;BME280;53333;51.976;20.144;2023-05-01T04:08:04;100783.00;;;5.95;56.11
36664;BME280;53333;51.976;20.144;2023-05-01T04:10:37;100782.84;;;6.05;56.01
36664;BME280;53333;51.976;20.144;2023-05-01T04:13:12;100781.78;;;6.13;55.98
36664;BME280;53333;51.976;20.144;2023-05-01T04:15:45;100775.38;;;6.24;55.84
36664;BME280;53333;51.976;20.144;2023-05-01T04:18:18;100782.25;;;6.34;55.69
36664;BME280;53333;51.976;20.144;2023-05-01T04:20:51;100778.47;;;6.44;55.52
36664;BME280;53333;51.976;20.144;2023-05-01T04:23:24;100781.81;;;6.54;55.17
36664;BME280;53333;51.976;20.144;2023-05-01T04:26:00;100782.50;;;6.64;54.75
36664;BME280;53333;51.976;20.144;2023-05-01T04:28:35;100774.91;;;6.84;54.39
36664;BME280;53333;51.976;20.144;2023-05-01T04:31:10;100784.72;;;6.82;54.16
36664;BME280;53333;51.976;20.144;2023-05-01T04:33:43;100773.06;;;6.89;54.15
36664;BME280;53333;51.976;20.144;2023-05-01T04:36:16;100777.22;;;7.00;53.97
36664;BME280;53333;51.976;20.144;2023-05-01T04:38:49;100776.09;;;7.10;53.64
36664;BME280;53333;51.976;20.144;2023-05-01T04:41:22;100777.59;;;7.20;53.45
36664;BME280;53333;51.976;20.144;2023-05-01T04:43:58;100777.31;;;7.33;53.23
36664;BME280;53333;51.976;20.144;2023-05-01T04:46:31;100773.53;;;7.41;52.73
36664;BME280;53333;51.976;20.144;2023-05-01T04:49:04;100776.81;;;7.51;52.65
36664;BME280;53333;51.976;20.144;2023-05-01T04:51:38;100769.41;;;7.62;52.49
36664;BME280;53333;51.976;20.144;2023-05-01T04:54:14;100772.63;;;7.75;52.00
36664;BME280;53333;51.976;20.144;2023-05-01T04:56:47;100774.13;;;7.86;52.03
36664;BME280;53333;51.976;20.144;2023-05-01T04:59:22;100772.06;;;7.95;51.72
36664;BME280;53333;51.976;20.144;2023-05-01T05:01:59;100762.03;;;8.05;51.39
36664;BME280;53333;51.976;20.144;2023-05-01T05:04:36;100766.31;;;8.11;51.15
36664;BME280;53333;51.976;20.144;2023-05-01T05:07:12;100773.25;;;8.16;50.97
36664;BME280;53333;51.976;20.144;2023-05-01T05:10:06;100765.84;;;8.26;50.93
36664;BME280;53333;51.976;20.144;2023-05-01T05:12:43;100764.69;;;8.36;50.42
36664;BME280;53333;51.976;20.144;2023-05-01T05:15:20;100775.94;;;8.46;50.14
36664;BME280;53333;51.976;20.144;2023-05-01T05:17:55;100772.03;;;8.58;49.75
36664;BME280;53333;51.976;20.144;2023-05-01T05:20:31;100769.00;;;8.70;49.45
36664;BME280;53333;51.976;20.144;2023-05-01T05:23:07;100766.66;;;8.88;49.26
36664;BME280;53333;51.976;20.144;2023-05-01T05:25:43;100775.94;;;9.03;48.57
36664;BME280;53333;51.976;20.144;2023-05-01T05:28:17;100770.28;;;9.14;48.26
36664;BME280;53333;51.976;20.144;2023-05-01T05:30:51;100767.25;;;9.24;48.24
36664;BME280;53333;51.976;20.144;2023-05-01T05:33:28;100758.69;;;9.41;47.92
36664;BME280;53333;51.976;20.144;2023-05-01T05:36:02;100763.53;;;9.55;47.52
36664;BME280;53333;51.976;20.144;2023-05-01T05:38:41;100762.09;;;9.72;46.94
36664;BME280;53333;51.976;20.144;2023-05-01T05:41:19;100765.81;;;9.91;46.60
36664;BME280;53333;51.976;20.144;2023-05-01T05:43:57;100760.69;;;10.10;46.42
36664;BME280;53333;51.976;20.144;2023-05-01T05:46:33;100756.38;;;10.30;45.61
36664;BME280;53333;51.976;20.144;2023-05-01T05:49:07;100768.22;;;10.46;45.35
36664;BME280;53333;51.976;20.144;2023-05-01T05:51:42;100767.66;;;10.62;44.45
36664;BME280;53333;51.976;20.144;2023-05-01T05:54:17;100763.66;;;10.72;43.96
36664;BME280;53333;51.976;20.144;2023-05-01T05:56:52;100755.16;;;10.84;44.15
36664;BME280;53333;51.976;20.144;2023-05-01T05:59:26;100756.28;;;11.01;43.52
36664;BME280;53333;51.976;20.144;2023-05-01T06:02:00;100752.91;;;11.18;43.48
36664;BME280;53333;51.976;20.144;2023-05-01T06:04:33;100753.06;;;11.35;42.81
36664;BME280;53333;51.976;20.144;2023-05-01T06:07:06;100751.59;;;11.49;42.49
36664;BME280;53333;51.976;20.144;2023-05-01T06:09:39;100752.88;;;11.60;42.33
36664;BME280;53333;51.976;20.144;2023-05-01T06:12:12;100761.50;;;11.67;41.91
36664;BME280;53333;51.976;20.144;2023-05-01T06:14:45;100765.50;;;11.77;41.61
36664;BME280;53333;51.976;20.144;2023-05-01T06:17:22;100759.16;;;11.80;41.44
36664;BME280;53333;51.976;20.144;2023-05-01T06:19:57;100761.56;;;11.86;41.33
36664;BME280;53333;51.976;20.144;2023-05-01T06:22:34;100762.84;;;11.98;40.90
36664;BME280;53333;51.976;20.144;2023-05-01T06:25:20;100759.81;;;12.06;40.85
36664;BME280;53333;51.976;20.144;2023-05-01T06:27:54;100762.94;;;12.15;40.42
36664;BME280;53333;51.976;20.144;2023-05-01T06:30:28;100767.03;;;12.24;40.03
36664;BME280;53333;51.976;20.144;2023-05-01T06:33:02;100758.72;;;12.30;40.32
36664;BME280;53333;51.976;20.144;2023-05-01T06:35:37;100750.81;;;12.46;39.90
36664;BME280;53333;51.976;20.144;2023-05-01T06:38:10;100759.00;;;12.62;39.66
36664;BME280;53333;51.976;20.144;2023-05-01T06:40:43;100751.25;;;12.75;39.81
36664;BME280;53333;51.976;20.144;2023-05-01T06:43:17;100744.25;;;12.90;39.53
36664;BME280;53333;51.976;20.144;2023-05-01T06:45:50;100758.47;;;13.09;39.43
36664;BME280;53333;51.976;20.144;2023-05-01T06:48:25;100749.59;;;13.26;39.30
36664;BME280;53333;51.976;20.144;2023-05-01T06:50:57;100738.34;;;13.37;38.92
36664;BME280;53333;51.976;20.144;2023-05-01T06:53:30;100747.34;;;13.54;38.43
36664;BME280;53333;51.976;20.144;2023-05-01T06:56:03;100736.91;;;13.65;38.58
36664;BME280;53333;51.976;20.144;2023-05-01T06:58:37;100734.56;;;13.92;38.82
36664;BME280;53333;51.976;20.144;2023-05-01T07:01:09;100736.31;;;13.93;38.13
36664;BME280;53333;51.976;20.144;2023-05-01T07:03:44;100731.41;;;14.02;38.08
36664;BME280;53333;51.976;20.144;2023-05-01T07:06:17;100730.75;;;14.14;38.53
36664;BME280;53333;51.976;20.144;2023-05-01T07:08:50;100732.66;;;14.28;37.98
36664;BME280;53333;51.976;20.144;2023-05-01T07:11:23;100733.56;;;14.44;37.36
36664;BME280;53333;51.976;20.144;2023-05-01T07:13:57;100735.66;;;14.55;37.31
36664;BME280;53333;51.976;20.144;2023-05-01T07:16:30;100726.97;;;14.66;36.78
36664;BME280;53333;51.976;20.144;2023-05-01T07:19:04;100727.22;;;14.77;36.40
36664;BME280;53333;51.976;20.144;2023-05-01T07:21:37;100727.22;;;14.93;36.55
36664;BME280;53333;51.976;20.144;2023-05-01T07:24:10;100721.72;;;15.11;36.33
36664;BME280;53333;51.976;20.144;2023-05-01T07:26:43;100725.94;;;15.31;35.95
36664;BME280;53333;51.976;20.144;2023-05-01T07:29:16;100720.97;;;15.53;35.83
36664;BME280;53333;51.976;20.144;2023-05-01T07:31:49;100715.94;;;15.77;35.79
36664;BME280;53333;51.976;20.144;2023-05-01T07:34:24;100719.03;;;16.00;35.12
36664;BME280;53333;51.976;20.144;2023-05-01T07:36:57;100728.47;;;16.22;34.65
36664;BME280;53333;51.976;20.144;2023-05-01T07:39:30;100716.41;;;16.42;34.77
36664;BME280;53333;51.976;20.144;2023-05-01T07:42:03;100718.38;;;16.67;34.29
36664;BME280;53333;51.976;20.144;2023-05-01T07:44:35;100727.19;;;16.83;33.83
36664;BME280;53333;51.976;20.144;2023-05-01T07:47:09;100727.63;;;17.04;33.61
36664;BME280;53333;51.976;20.144;2023-05-01T07:49:43;100713.56;;;17.27;33.23
36664;BME280;53333;51.976;20.144;2023-05-01T07:52:16;100721.06;;;17.49;32.47
36664;BME280;53333;51.976;20.144;2023-05-01T07:54:49;100720.63;;;17.68;32.08
36664;BME280;53333;51.976;20.144;2023-05-01T07:57:22;100721.50;;;17.81;31.60
36664;BME280;53333;51.976;20.144;2023-05-01T07:59:55;100724.03;;;17.97;31.29
36664;BME280;53333;51.976;20.144;2023-05-01T08:02:29;100726.06;;;18.19;31.42
36664;BME280;53333;51.976;20.144;2023-05-01T08:05:04;100725.50;;;18.40;30.87
36664;BME280;53333;51.976;20.144;2023-05-01T08:07:37;100729.09;;;18.64;30.82
36664;BME280;53333;51.976;20.144;2023-05-01T08:10:10;100725.97;;;18.95;29.95
36664;BME280;53333;51.976;20.144;2023-05-01T08:12:43;100727.22;;;19.26;29.39
36664;BME280;53333;51.976;20.144;2023-05-01T08:15:16;100722.75;;;19.60;29.23
36664;BME280;53333;51.976;20.144;2023-05-01T08:17:49;100732.72;;;19.95;28.46
36664;BME280;53333;51.976;20.144;2023-05-01T08:20:24;100715.09;;;20.35;29.34
36664;BME280;53333;51.976;20.144;2023-05-01T08:23:00;100726.81;;;20.70;28.71
36664;BME280;53333;51.976;20.144;2023-05-01T08:25:44;100722.41;;;21.22;28.09
36664;BME280;53333;51.976;20.144;2023-05-01T08:28:18;100719.88;;;21.84;27.24
36664;BME280;53333;51.976;20.144;2023-05-01T08:30:54;100718.22;;;22.64;25.65
36664;BME280;53333;51.976;20.144;2023-05-01T08:33:30;100721.28;;;23.88;23.98
36664;BME280;53333;51.976;20.144;2023-05-01T08:36:04;100714.56;;;25.39;21.92
36664;BME280;53333;51.976;20.144;2023-05-01T08:38:39;100711.63;;;26.96;19.91
36664;BME280;53333;51.976;20.144;2023-05-01T08:41:15;100705.50;;;28.41;18.77
36664;BME280;53333;51.976;20.144;2023-05-01T08:43:51;100713.88;;;29.80;18.17
36664;BME280;53333;51.976;20.144;2023-05-01T08:46:30;100712.09;;;30.98;16.52
36664;BME280;53333;51.976;20.144;2023-05-01T08:49:06;100714.94;;;31.76;15.51
36664;BME280;53333;51.976;20.144;2023-05-01T08:51:44;100710.03;;;32.35;15.69
36664;BME280;53333;51.976;20.144;2023-05-01T08:54:20;100714.97;;;33.08;14.87
36664;BME280;53333;51.976;20.144;2023-05-01T08:56:55;100705.84;;;34.08;13.47
36664;BME280;53333;51.976;20.144;2023-05-01T08:59:31;100711.22;;;35.06;12.70
36664;BME280;53333;51.976;20.144;2023-05-01T09:02:07;100716.63;;;35.58;11.77
36664;BME280;53333;51.976;20.144;2023-05-01T09:04:40;100713.09;;;36.13;11.39
36664;BME280;53333;51.976;20.144;2023-05-01T09:07:17;100708.09;;;36.22;11.43
36664;BME280;53333;51.976;20.144;2023-05-01T09:09:50;100714.72;;;36.58;10.92
36664;BME280;53333;51.976;20.144;2023-05-01T09:12:25;100703.03;;;36.86;10.31
36664;BME280;53333;51.976;20.144;2023-05-01T09:14:57;100709.28;;;37.42;10.05
36664;BME280;53333;51.976;20.144;2023-05-01T09:17:30;100701.78;;;38.26;9.81
36664;BME280;53333;51.976;20.144;2023-05-01T09:20:05;100697.22;;;39.06;9.30
36664;BME280;53333;51.976;20.144;2023-05-01T09:22:39;100692.94;;;39.61;8.21
36664;BME280;53333;51.976;20.144;2023-05-01T09:25:12;100699.09;;;40.19;8.71
36664;BME280;53333;51.976;20.144;2023-05-01T09:27:45;100702.59;;;40.76;8.29
36664;BME280;53333;51.976;20.144;2023-05-01T09:30:33;100694.69;;;41.22;7.27
36664;BME280;53333;51.976;20.144;2023-05-01T09:33:08;100696.03;;;41.47;7.44
36664;BME280;53333;51.976;20.144;2023-05-01T09:35:49;100688.19;;;41.86;6.82
36664;BME280;53333;51.976;20.144;2023-05-01T09:38:24;100681.41;;;42.30;6.06
36664;BME280;53333;51.976;20.144;2023-05-01T09:41:03;100683.84;;;42.69;6.54
36664;BME280;53333;51.976;20.144;2023-05-01T09:43:36;100683.03;;;42.89;6.65
36664;BME280;53333;51.976;20.144;2023-05-01T09:46:10;100677.44;;;43.10;6.50
36664;BME280;53333;51.976;20.144;2023-05-01T09:49:02;100674.66;;;43.25;6.68
36664;BME280;53333;51.976;20.144;2023-05-01T09:51:35;100681.38;;;43.34;6.59
36664;BME280;53333;51.976;20.144;2023-05-01T09:54:22;100669.03;;;43.35;6.63
36664;BME280;53333;51.976;20.144;2023-05-01T09:56:55;100674.41;;;43.42;6.48
36664;BME280;53333;51.976;20.144;2023-05-01T09:59:29;100672.69;;;43.57;6.63
36664;BME280;53333;51.976;20.144;2023-05-01T10:02:04;100672.66;;;43.77;6.32
36664;BME280;53333;51.976;20.144;2023-05-01T10:04:37;100671.22;;;43.85;6.54
36664;BME280;53333;51.976;20.144;2023-05-01T10:07:12;100663.94;;;43.68;6.47
36664;BME280;53333;51.976;20.144;2023-05-01T10:09:46;100659.47;;;43.67;6.23
36664;BME280;53333;51.976;20.144;2023-05-01T10:12:23;100655.28;;;43.34;6.50
36664;BME280;53333;51.976;20.144;2023-05-01T10:14:57;100653.56;;;42.97;6.50
36664;BME280;53333;51.976;20.144;2023-05-01T10:17:42;100648.53;;;43.14;6.19
36664;BME280;53333;51.976;20.144;2023-05-01T10:20:16;100655.00;;;43.15;6.21
36664;BME280;53333;51.976;20.144;2023-05-01T10:22:48;100647.38;;;42.90;6.07
36664;BME280;53333;51.976;20.144;2023-05-01T10:25:24;100643.41;;;42.60;5.77
36664;BME280;53333;51.976;20.144;2023-05-01T10:28:02;100641.81;;;42.11;6.07
36664;BME280;53333;51.976;20.144;2023-05-01T10:30:35;100651.72;;;41.76;6.14
36664;BME280;53333;51.976;20.144;2023-05-01T10:33:11;100638.53;;;41.77;6.11
36664;BME280;53333;51.976;20.144;2023-05-01T10:35:48;100635.34;;;41.68;5.97
36664;BME280;53333;51.976;20.144;2023-05-01T10:38:32;100633.34;;;41.20;5.98
36664;BME280;53333;51.976;20.144;2023-05-01T10:41:07;100637.59;;;40.96;6.42
36664;BME280;53333;51.976;20.144;2023-05-01T10:43:42;100626.13;;;40.70;6.70
36664;BME280;53333;51.976;20.144;2023-05-01T10:46:27;100620.75;;;40.63;6.45
36664;BME280;53333;51.976;20.144;2023-05-01T10:49:00;100624.56;;;40.52;7.21
36664;BME280;53333;51.976;20.144;2023-05-01T10:51:57;100619.75;;;40.47;6.72
36664;BME280;53333;51.976;20.144;2023-05-01T10:54:31;100613.59;;;40.23;6.44
36664;BME280;53333;51.976;20.144;2023-05-01T10:57:06;100599.38;;;39.86;7.33
36664;BME280;53333;51.976;20.144;2023-05-01T11:00:10;100601.41;;;38.83;7.02
36664;BME280;53333;51.976;20.144;2023-05-01T11:02:43;100603.44;;;37.78;7.58
36664;BME280;53333;51.976;20.144;2023-05-01T11:05:17;100597.34;;;36.56;8.73
36664;BME280;53333;51.976;20.144;2023-05-01T11:08:28;100584.25;;;34.77;9.44
36664;BME280;53333;51.976;20.144;2023-05-01T11:14:10;100571.28;;;32.59;10.24
36664;BME280;53333;51.976;20.144;2023-05-01T11:16:44;100579.28;;;31.79;10.72
36664;BME280;53333;51.976;20.144;2023-05-01T11:19:45;100577.09;;;30.90;11.14
36664;BME280;53333;51.976;20.144;2023-05-01T11:22:23;100577.22;;;30.23;11.61
36664;BME280;53333;51.976;20.144;2023-05-01T11:24:58;100568.47;;;29.68;12.14
36664;BME280;53333;51.976;20.144;2023-05-01T11:27:31;100569.47;;;29.23;12.59
36664;BME280;53333;51.976;20.144;2023-05-01T11:30:09;100561.00;;;28.86;13.40
36664;BME280;53333;51.976;20.144;2023-05-01T11:32:44;100561.97;;;28.47;12.97
36664;BME280;53333;51.976;20.144;2023-05-01T11:35:20;100556.59;;;27.91;13.22
36664;BME280;53333;51.976;20.144;2023-05-01T11:37:53;100567.41;;;27.45;13.35
36664;BME280;53333;51.976;20.144;2023-05-01T11:40:29;100547.75;;;27.00;14.14
36664;BME280;53333;51.976;20.144;2023-05-01T11:43:03;100543.78;;;26.61;14.73
36664;BME280;53333;51.976;20.144;2023-05-01T11:45:37;100542.56;;;26.31;14.99
36664;BME280;53333;51.976;20.144;2023-05-01T11:48:13;100540.56;;;25.99;15.13
36664;BME280;53333;51.976;20.144;2023-05-01T11:50:47;100541.28;;;25.66;15.96
36664;BME280;53333;51.976;20.144;2023-05-01T11:53:20;100529.19;;;25.43;16.15
36664;BME280;53333;51.976;20.144;2023-05-01T11:55:53;100524.78;;;25.24;16.57
36664;BME280;53333;51.976;20.144;2023-05-01T11:58:30;100523.28;;;25.03;16.36
36664;BME280;53333;51.976;20.144;2023-05-01T12:01:05;100520.53;;;24.77;15.76
36664;BME280;53333;51.976;20.144;2023-05-01T12:03:42;100516.72;;;24.52;16.51
36664;BME280;53333;51.976;20.144;2023-05-01T12:06:15;100522.03;;;24.35;16.26
36664;BME280;53333;51.976;20.144;2023-05-01T12:08:49;100523.25;;;24.23;16.30
36664;BME280;53333;51.976;20.144;2023-05-01T12:11:23;100520.06;;;24.09;16.46
36664;BME280;53333;51.976;20.144;2023-05-01T12:13:59;100524.16;;;23.96;16.51
36664;BME280;53333;51.976;20.144;2023-05-01T12:16:34;100525.94;;;23.77;17.27
36664;BME280;53333;51.976;20.144;2023-05-01T12:19:07;100521.03;;;23.53;17.51
36664;BME280;53333;51.976;20.144;2023-05-01T12:21:42;100518.56;;;23.32;17.53
36664;BME280;53333;51.976;20.144;2023-05-01T12:24:18;100511.28;;;23.23;17.99
36664;BME280;53333;51.976;20.144;2023-05-01T12:26:58;100511.84;;;23.16;17.99
36664;BME280;53333;51.976;20.144;2023-05-01T12:29:38;100494.66;;;23.06;19.14
36664;BME280;53333;51.976;20.144;2023-05-01T12:32:13;100500.88;;;22.89;18.36
36664;BME280;53333;51.976;20.144;2023-05-01T12:34:47;100494.16;;;22.73;18.75
36664;BME280;53333;51.976;20.144;2023-05-01T12:37:20;100488.59;;;22.65;19.38
36664;BME280;53333;51.976;20.144;2023-05-01T12:39:53;100479.84;;;22.61;18.82
36664;BME280;53333;51.976;20.144;2023-05-01T12:42:26;100490.91;;;22.40;18.80
36664;BME280;53333;51.976;20.144;2023-05-01T12:45:00;100488.00;;;22.22;18.63
36664;BME280;53333;51.976;20.144;2023-05-01T12:47:36;100474.38;;;22.03;18.94
36664;BME280;53333;51.976;20.144;2023-05-01T12:50:09;100470.81;;;21.92;19.28
36664;BME280;53333;51.976;20.144;2023-05-01T12:52:42;100469.91;;;21.82;19.49
36664;BME280;53333;51.976;20.144;2023-05-01T12:55:15;100465.91;;;21.76;19.66
36664;BME280;53333;51.976;20.144;2023-05-01T12:57:52;100459.56;;;21.66;20.01
36664;BME280;53333;51.976;20.144;2023-05-01T13:00:25;100458.56;;;21.57;19.86
36664;BME280;53333;51.976;20.144;2023-05-01T13:03:03;100448.63;;;21.47;19.73
36664;BME280;53333;51.976;20.144;2023-05-01T13:05:48;100442.31;;;21.36;19.73
36664;BME280;53333;51.976;20.144;2023-05-01T13:08:29;100439.13;;;21.31;20.53
36664;BME280;53333;51.976;20.144;2023-05-01T13:11:08;100436.81;;;21.27;20.28
36664;BME280;53333;51.976;20.144;2023-05-01T13:13:44;100438.13;;;21.22;20.17
36664;BME280;53333;51.976;20.144;2023-05-01T13:16:18;100435.41;;;21.22;20.19
36664;BME280;53333;51.976;20.144;2023-05-01T13:18:52;100428.25;;;21.21;20.84
36664;BME280;53333;51.976;20.144;2023-05-01T13:21:26;100441.09;;;21.19;20.19
36664;BME280;53333;51.976;20.144;2023-05-01T13:23:59;100426.75;;;21.08;19.95
36664;BME280;53333;51.976;20.144;2023-05-01T13:26:34;100428.44;;;20.99;20.01
36664;BME280;53333;51.976;20.144;2023-05-01T13:29:12;100422.13;;;20.89;20.28
36664;BME280;53333;51.976;20.144;2023-05-01T13:31:45;100417.63;;;20.78;20.84
36664;BME280;53333;51.976;20.144;2023-05-01T13:34:24;100422.59;;;20.73;20.88
36664;BME280;53333;51.976;20.144;2023-05-01T13:36:59;100416.19;;;20.62;20.79
36664;BME280;53333;51.976;20.144;2023-05-01T13:39:33;100408.84;;;20.53;21.17